createdAt,value
2019-05-22T00:02:10.447Z,97.20
2019-05-22T00:05:18.421Z,97.30
2019-05-22T00:08:23.688Z,97.30
2019-05-22T00:11:30.100Z,97.50
2019-05-22T00:14:36.247Z,97.50
2019-05-22T00:17:41.350Z,97.30
2019-05-22T00:20:46.815Z,97.30
2019-05-22T00:23:54.975Z,97.30
2019-05-22T00:27:01.172Z,97.30
2019-05-22T00:30:07.150Z,97.40
2019-05-22T00:33:11.950Z,97.40
2019-05-22T00:36:17.925Z,97.50
2019-05-22T00:39:23.779Z,97.30
2019-05-22T00:42:28.148Z,97.40
2019-05-22T00:45:33.504Z,97.40
2019-05-22T00:48:41.616Z,97.50
2019-05-22T00:52:06.078Z,97.90
2019-05-22T00:55:25.135Z,97.60
2019-05-22T00:58:40.167Z,97.60
2019-05-22T01:01:47.762Z,97.60
2019-05-22T01:04:54.224Z,97.50
2019-05-22T01:08:00.196Z,97.40
2019-05-22T01:11:06.807Z,97.40
2019-05-22T01:14:12.800Z,97.50
2019-05-22T01:17:17.754Z,97.50
2019-05-22T01:20:26.300Z,97.50
2019-05-22T01:23:33.150Z,97.60
2019-05-22T01:26:39.165Z,97.60
2019-05-22T01:29:46.235Z,97.70
2019-05-22T01:32:50.954Z,97.70
2019-05-22T01:36:13.536Z,97.60
2019-05-22T01:39:31.432Z,97.60
2019-05-22T01:42:41.706Z,97.70
2019-05-22T01:45:54.436Z,97.50
2019-05-22T01:49:03.143Z,97.40
2019-05-22T01:52:09.424Z,97.40
2019-05-22T01:55:14.980Z,97.30
2019-05-22T01:58:21.773Z,97.30
2019-05-22T02:01:27.260Z,97.30
2019-05-22T02:04:31.676Z,97.10
2019-05-22T02:07:36.946Z,97.10
2019-05-22T02:10:43.641Z,97.00
2019-05-22T02:13:54.253Z,97.00
2019-05-22T02:16:59.435Z,96.90
2019-05-22T02:20:06.569Z,96.80
2019-05-22T02:23:12.544Z,96.80
2019-05-22T02:26:17.991Z,96.70
2019-05-22T02:29:23.045Z,96.60
2019-05-22T02:32:29.499Z,96.50
2019-05-22T02:35:34.489Z,96.60
2019-05-22T02:38:40.035Z,96.60
2019-05-22T02:41:48.829Z,96.50
2019-05-22T02:44:54.083Z,96.60
2019-05-22T02:48:00.911Z,96.50
2019-05-22T02:51:05.657Z,96.60
2019-05-22T02:54:11.036Z,96.50
2019-05-22T02:57:15.796Z,96.30
2019-05-22T03:00:22.488Z,96.30
2019-05-22T03:03:28.945Z,96.30
2019-05-22T03:06:35.294Z,96.20
2019-05-22T03:09:41.098Z,96.10
2019-05-22T03:12:46.688Z,96.20
2019-05-22T03:15:52.544Z,96.10
2019-05-22T03:19:08.509Z,96.10
2019-05-22T03:22:19.013Z,96.10
2019-05-22T03:25:24.794Z,96.20
2019-05-22T03:28:29.822Z,96.00
2019-05-22T03:31:34.740Z,96.00
2019-05-22T03:34:40.734Z,95.90
2019-05-22T03:37:45.996Z,95.90
2019-05-22T03:40:53.694Z,95.90
2019-05-22T03:43:58.581Z,96.00
2019-05-22T03:47:05.095Z,95.90
2019-05-22T03:50:10.681Z,95.90
2019-05-22T03:53:17.966Z,95.90
2019-05-22T03:56:23.126Z,96.30
2019-05-22T03:59:27.472Z,96.00
2019-05-22T04:02:32.082Z,96.10
2019-05-22T04:05:36.438Z,96.20
2019-05-22T04:08:41.477Z,96.20
2019-05-22T04:11:47.257Z,96.30
2019-05-22T04:14:52.714Z,96.30
2019-05-22T04:18:08.301Z,96.30
2019-05-22T04:21:13.303Z,96.40
2019-05-22T04:24:17.828Z,96.50
2019-05-22T04:27:22.744Z,96.50
2019-05-22T04:30:27.768Z,96.40
2019-05-22T04:33:32.582Z,96.40
2019-05-22T04:36:37.732Z,96.50
2019-05-22T04:39:43.992Z,96.50
2019-05-22T04:42:50.637Z,96.50
2019-05-22T04:45:57.177Z,96.40
2019-05-22T04:49:01.870Z,96.40
2019-05-22T04:52:07.408Z,96.40
2019-05-22T04:55:12.758Z,96.50
2019-05-22T04:58:22.169Z,96.40
2019-05-22T05:01:27.802Z,96.40
2019-05-22T05:04:32.233Z,96.40
2019-05-22T05:07:37.915Z,96.50
2019-05-22T05:10:44.373Z,96.40
2019-05-22T05:13:48.918Z,96.40
2019-05-22T05:16:53.506Z,96.50
2019-05-22T05:19:58.072Z,96.40
2019-05-22T05:23:02.834Z,96.40
2019-05-22T05:26:07.690Z,96.30
2019-05-22T05:29:27.549Z,96.40
2019-05-22T05:32:31.938Z,96.30
2019-05-22T05:35:37.290Z,96.30
2019-05-22T05:38:42.138Z,96.40
2019-05-22T05:41:46.731Z,96.40
2019-05-22T05:44:51.479Z,96.50
2019-05-22T05:47:57.902Z,96.50
2019-05-22T05:51:36.343Z,96.40
2019-05-22T05:54:43.645Z,96.40
2019-05-22T05:58:29.765Z,96.40
2019-05-22T06:01:39.295Z,96.30
2019-05-22T06:04:44.084Z,96.30
2019-05-22T06:07:48.499Z,96.20
2019-05-22T06:11:50.603Z,96.20
2019-05-22T06:14:57.010Z,96.00
2019-05-22T06:18:34.405Z,95.90
2019-05-22T06:21:44.331Z,95.80
2019-05-22T06:25:01.995Z,95.60
2019-05-22T06:28:06.911Z,95.50
2019-05-22T06:31:17.565Z,95.40
2019-05-22T06:34:22.420Z,95.60
2019-05-22T06:37:35.339Z,95.30
2019-05-22T06:40:43.423Z,95.20
2019-05-22T06:44:25.015Z,95.20
2019-05-22T06:47:29.921Z,95.20
2019-05-22T06:50:34.354Z,94.40
2019-05-22T06:53:38.831Z,94.40
2019-05-22T06:56:43.641Z,94.70
2019-05-22T06:59:49.209Z,94.80
2019-05-22T07:02:53.617Z,94.80
2019-05-22T07:05:58.631Z,94.80
2019-05-22T07:09:03.894Z,94.80
2019-05-22T07:12:10.134Z,94.70
2019-05-22T07:16:20.575Z,94.60
2019-05-22T07:19:27.065Z,94.60
2019-05-22T07:22:31.441Z,94.50
2019-05-22T07:25:36.371Z,94.40
2019-05-22T07:28:41.200Z,94.20
2019-05-22T07:31:45.849Z,94.00
2019-05-22T07:34:50.270Z,93.40
2019-05-22T07:37:55.376Z,93.30
2019-05-22T07:41:00.059Z,93.30
2019-05-22T07:44:04.448Z,92.70
2019-05-22T07:47:10.462Z,93.10
2019-05-22T07:50:16.019Z,93.20
2019-05-22T07:53:22.577Z,93.30
2019-05-22T07:56:28.138Z,93.40
2019-05-22T07:59:32.353Z,93.40
2019-05-22T08:02:41.560Z,93.50
2019-05-22T08:05:49.929Z,93.40
2019-05-22T08:08:55.566Z,93.00
2019-05-22T08:11:59.602Z,93.10
2019-05-22T08:15:04.449Z,93.30
2019-05-22T08:18:09.363Z,92.70
2019-05-22T08:21:13.935Z,92.60
2019-05-22T08:24:18.021Z,92.60
2019-05-22T08:27:23.806Z,92.70
2019-05-22T08:30:28.260Z,92.30
2019-05-22T08:33:34.467Z,92.40
2019-05-22T08:36:39.676Z,91.90
2019-05-22T08:39:44.270Z,92.00
2019-05-22T08:42:49.005Z,92.00
2019-05-22T08:45:53.507Z,91.40
2019-05-22T08:48:57.817Z,91.70
2019-05-22T08:52:01.924Z,91.70
2019-05-22T08:55:06.946Z,91.80
2019-05-22T08:58:11.434Z,91.70
2019-05-22T09:01:16.259Z,91.90
2019-05-22T09:04:20.354Z,91.80
2019-05-22T09:07:25.146Z,91.90
2019-05-22T09:10:29.736Z,91.90
2019-05-22T09:13:33.956Z,92.20
2019-05-22T09:16:38.169Z,92.20
2019-05-22T09:19:42.314Z,92.50
2019-05-22T09:22:47.122Z,92.60
2019-05-22T09:25:51.279Z,92.60
2019-05-22T09:28:55.531Z,92.60
2019-05-22T09:31:59.602Z,92.50
2019-05-22T09:35:03.841Z,92.50
2019-05-22T09:38:07.990Z,92.40
2019-05-22T09:41:12.406Z,92.40
2019-05-22T09:44:17.503Z,92.30
2019-05-22T09:47:24.409Z,92.30
2019-05-22T09:50:29.094Z,92.30
2019-05-22T09:53:33.603Z,92.20
2019-05-22T09:56:38.464Z,91.90
2019-05-22T09:59:42.589Z,92.20
2019-05-22T10:02:46.697Z,92.30
2019-05-22T10:05:50.958Z,92.60
2019-05-22T10:08:54.955Z,92.60
2019-05-22T10:11:59.569Z,92.80
2019-05-22T10:15:05.898Z,92.90
2019-05-22T10:18:11.026Z,93.00
2019-05-22T10:21:16.722Z,93.10
2019-05-22T10:24:22.287Z,93.20
2019-05-22T10:27:26.656Z,93.30
2019-05-22T10:30:31.126Z,93.30
2019-05-22T10:33:36.555Z,93.20
2019-05-22T10:36:43.088Z,93.20
2019-05-22T10:39:47.332Z,93.20
2019-05-22T10:42:53.005Z,93.10
2019-05-22T10:45:58.161Z,93.00
2019-05-22T10:49:02.818Z,92.90
2019-05-22T10:52:07.674Z,93.00
2019-05-22T10:55:13.107Z,93.00
2019-05-22T10:58:17.752Z,93.50
2019-05-22T11:01:23.343Z,93.10
2019-05-22T11:04:29.563Z,93.10
2019-05-22T11:07:34.432Z,93.20
2019-05-22T11:10:38.802Z,93.30
2019-05-22T11:13:59.953Z,93.30
2019-05-22T11:16:49.415Z,93.50
2019-05-22T11:19:53.837Z,93.40
2019-05-22T11:23:01.837Z,93.50
2019-05-22T11:26:06.314Z,93.50
2019-05-22T11:29:10.711Z,93.60
2019-05-22T11:32:15.443Z,93.50
2019-05-22T11:35:22.219Z,93.50
2019-05-22T11:38:27.305Z,93.40
2019-05-22T11:41:32.765Z,93.40
2019-05-22T11:44:37.192Z,93.30
2019-05-22T11:47:42.526Z,93.30
2019-05-22T11:50:47.377Z,93.60
2019-05-22T11:54:08.019Z,93.00
2019-05-22T11:56:59.191Z,92.90
2019-05-22T12:00:03.936Z,92.80
2019-05-22T12:03:08.883Z,92.60
2019-05-22T12:06:13.679Z,92.40
2019-05-22T12:09:19.262Z,92.10
2019-05-22T12:12:25.059Z,91.90
2019-05-22T12:15:31.933Z,91.60
2019-05-22T12:18:37.460Z,91.30
2019-05-22T12:21:46.276Z,91.20
2019-05-22T12:24:51.072Z,91.10
2019-05-22T12:27:56.506Z,91.10
2019-05-22T12:31:01.754Z,91.10
2019-05-22T12:34:06.684Z,91.10
2019-05-22T12:37:11.818Z,90.80
2019-05-22T12:40:19.242Z,90.90
2019-05-22T12:43:23.959Z,90.90
2019-05-22T12:46:29.135Z,90.90
2019-05-22T12:49:33.792Z,90.90
2019-05-22T12:52:38.891Z,90.90
2019-05-22T12:55:44.511Z,91.00
2019-05-22T12:58:49.442Z,91.20
2019-05-22T13:01:54.418Z,91.40
2019-05-22T13:05:04.185Z,91.50
2019-05-22T13:08:11.398Z,91.60
2019-05-22T13:11:16.589Z,91.70
2019-05-22T13:14:21.049Z,91.70
2019-05-22T13:17:27.897Z,91.80
2019-05-22T13:20:42.646Z,91.80
2019-05-22T13:23:45.818Z,92.00
2019-05-22T13:26:51.263Z,92.00
2019-05-22T13:29:57.766Z,92.10
2019-05-22T13:33:02.277Z,92.30
2019-05-22T13:36:09.663Z,92.30
2019-05-22T13:39:14.642Z,92.40
2019-05-22T13:42:19.248Z,92.40
2019-05-22T13:45:29.289Z,92.60
2019-05-22T13:48:31.311Z,92.60
2019-05-22T13:51:36.759Z,92.70
2019-05-22T13:54:43.973Z,92.70
2019-05-22T13:57:49.870Z,92.90
2019-05-22T14:00:54.418Z,93.30
2019-05-22T14:03:59.010Z,93.00
2019-05-22T14:07:04.693Z,93.00
2019-05-22T14:10:09.745Z,92.90
2019-05-22T14:13:15.486Z,93.20
2019-05-22T14:16:21.628Z,93.20
2019-05-22T14:19:26.081Z,93.40
2019-05-22T14:22:30.602Z,93.40
2019-05-22T14:25:35.485Z,93.50
2019-05-22T14:28:41.702Z,93.60
2019-05-22T14:31:46.483Z,93.60
2019-05-22T14:34:51.470Z,93.70
2019-05-22T14:37:57.159Z,93.70
2019-05-22T14:41:02.592Z,93.80
2019-05-22T14:44:07.089Z,93.90
2019-05-22T14:47:15.618Z,93.90
2019-05-22T14:50:19.594Z,94.00
2019-05-22T14:53:23.970Z,94.00
2019-05-22T14:56:28.432Z,94.00
2019-05-22T14:59:33.678Z,94.10
2019-05-22T15:02:38.147Z,94.00
2019-05-22T15:05:45.447Z,94.00
2019-05-22T15:08:49.991Z,94.00
2019-05-22T15:11:54.611Z,94.00
2019-05-22T15:14:59.058Z,94.00
2019-05-22T15:18:03.569Z,94.10
2019-05-22T15:21:09.699Z,94.10
2019-05-22T15:24:15.665Z,94.30
2019-05-22T15:27:23.150Z,94.20
2019-05-22T15:30:28.293Z,94.10
2019-05-22T15:33:34.991Z,94.20
2019-05-22T15:36:42.144Z,94.30
2019-05-22T15:39:47.361Z,94.30
2019-05-22T15:42:54.529Z,94.40
2019-05-22T15:46:01.510Z,94.40
2019-05-22T15:49:09.758Z,94.40
2019-05-22T15:52:16.817Z,94.80
2019-05-22T15:55:25.637Z,94.60
2019-05-22T15:58:31.383Z,94.60
2019-05-22T16:01:38.295Z,94.50
2019-05-22T16:04:44.379Z,94.50
2019-05-22T16:07:50.282Z,94.60
2019-05-22T16:10:59.962Z,94.70
2019-05-22T16:14:06.458Z,94.70
2019-05-22T16:17:12.103Z,94.60
2019-05-22T16:20:20.471Z,94.70
2019-05-22T16:23:26.304Z,94.70
2019-05-22T16:26:31.859Z,94.70
2019-05-22T16:29:38.279Z,94.70
2019-05-22T16:32:44.739Z,94.80
2019-05-22T16:35:49.880Z,94.90
2019-05-22T16:38:55.358Z,94.90
2019-05-22T16:42:01.819Z,94.90
2019-05-22T16:45:07.824Z,95.10
2019-05-22T16:48:27.770Z,95.10
2019-05-22T16:51:22.637Z,95.20
2019-05-22T16:54:28.213Z,95.20
2019-05-22T16:57:34.353Z,95.30
2019-05-22T17:00:39.843Z,95.30
2019-05-22T17:03:45.729Z,95.20
2019-05-22T17:06:50.800Z,95.40
2019-05-22T17:09:56.093Z,95.40
2019-05-22T17:13:02.565Z,95.50
2019-05-22T17:16:08.721Z,95.40
2019-05-22T17:19:26.253Z,95.90
2019-05-22T17:22:21.531Z,95.50
2019-05-22T17:25:26.544Z,95.50
2019-05-22T17:28:31.660Z,95.50
2019-05-22T17:31:36.863Z,95.50
2019-05-22T17:34:41.970Z,95.50
2019-05-22T17:37:47.266Z,95.50
2019-05-22T17:40:52.411Z,95.50
2019-05-22T17:43:58.173Z,95.50
2019-05-22T17:47:06.755Z,95.60
2019-05-22T17:50:26.140Z,95.70
2019-05-22T17:53:24.167Z,95.70
2019-05-22T17:56:29.271Z,95.90
2019-05-22T17:59:34.671Z,95.80
2019-05-22T18:02:40.179Z,95.90
2019-05-22T18:05:45.473Z,96.00
2019-05-22T18:08:50.462Z,96.00
2019-05-22T18:11:55.179Z,96.10
2019-05-22T18:15:01.421Z,96.10
2019-05-22T18:18:09.717Z,96.20
2019-05-22T18:21:16.047Z,96.30
2019-05-22T18:24:24.375Z,96.60
2019-05-22T18:27:29.240Z,96.30
2019-05-22T18:30:37.211Z,96.40
2019-05-22T18:33:43.919Z,96.60
2019-05-22T18:36:50.347Z,96.60
2019-05-22T18:39:55.758Z,96.80
2019-05-22T18:43:03.845Z,96.80
2019-05-22T18:46:08.990Z,96.90
2019-05-22T18:49:13.764Z,96.90
2019-05-22T18:52:18.932Z,97.00
2019-05-22T18:55:23.728Z,97.00
2019-05-22T18:58:29.001Z,97.00
2019-05-22T19:01:33.849Z,97.00
2019-05-22T19:04:38.706Z,97.00
2019-05-22T19:07:43.706Z,96.90
2019-05-22T19:10:48.582Z,96.90
2019-05-22T19:13:53.568Z,96.90
2019-05-22T19:16:58.176Z,96.90
2019-05-22T19:20:02.853Z,97.00
2019-05-22T19:23:07.867Z,96.90
2019-05-22T19:26:13.885Z,96.90
2019-05-22T19:29:18.379Z,96.80
2019-05-22T19:32:23.325Z,96.80
2019-05-22T19:35:27.962Z,96.70
2019-05-22T19:38:34.243Z,96.70
2019-05-22T19:41:39.795Z,96.70
2019-05-22T19:44:44.728Z,96.60
2019-05-22T19:47:55.893Z,96.70
2019-05-22T19:51:03.236Z,96.60
2019-05-22T19:54:09.350Z,96.60
2019-05-22T19:57:13.895Z,96.80
2019-05-22T20:00:18.834Z,96.70
2019-05-22T20:03:23.932Z,96.70
2019-05-22T20:06:29.178Z,96.60
2019-05-22T20:09:34.845Z,96.70
2019-05-22T20:12:40.365Z,96.60
2019-05-22T20:15:45.468Z,96.70
2019-05-22T20:18:51.431Z,96.70
2019-05-22T20:22:00.172Z,96.80
2019-05-22T20:25:04.295Z,96.70
2019-05-22T20:28:10.294Z,96.70
2019-05-22T20:31:15.329Z,96.70
2019-05-22T20:34:20.076Z,96.80
2019-05-22T20:37:26.014Z,96.70
2019-05-22T20:40:31.643Z,96.80
2019-05-22T20:43:38.149Z,97.20
2019-05-22T20:46:45.587Z,96.80
2019-05-22T20:49:51.602Z,96.80
2019-05-22T20:53:00.240Z,96.80
2019-05-22T20:56:06.741Z,96.80
2019-05-22T20:59:13.114Z,96.80
2019-05-22T21:02:18.666Z,96.90
2019-05-22T21:05:24.388Z,96.80
2019-05-22T21:08:31.087Z,96.90
2019-05-22T21:11:37.739Z,96.90
2019-05-22T21:14:42.932Z,96.90
2019-05-22T21:17:48.139Z,96.90
2019-05-22T21:20:56.287Z,96.90
2019-05-22T21:24:11.506Z,96.90
2019-05-22T21:27:11.668Z,96.90
2019-05-22T21:30:16.941Z,96.90
2019-05-22T21:33:22.318Z,96.90
2019-05-22T21:36:27.812Z,97.00
2019-05-22T21:39:32.236Z,97.00
2019-05-22T21:42:39.580Z,97.10
2019-05-22T21:45:44.493Z,97.00
2019-05-22T21:48:53.307Z,97.40
2019-05-22T21:51:57.791Z,96.80
2019-05-22T21:55:02.181Z,97.10
2019-05-22T21:58:06.654Z,97.00
2019-05-22T22:01:20.091Z,97.10
2019-05-22T22:04:32.742Z,97.10
2019-05-22T22:07:37.970Z,97.00
2019-05-22T22:10:44.815Z,97.10
2019-05-22T22:13:51.140Z,97.10
2019-05-22T22:16:56.455Z,97.20
2019-05-22T22:20:02.204Z,97.10
2019-05-22T22:23:08.036Z,97.10
2019-05-22T22:26:24.855Z,97.10
2019-05-22T22:29:19.908Z,97.10
2019-05-22T22:32:26.996Z,97.20
2019-05-22T22:35:31.620Z,97.20
2019-05-22T22:38:38.096Z,97.20
2019-05-22T22:41:44.472Z,97.10
2019-05-22T22:44:54.247Z,97.10
2019-05-22T22:48:00.134Z,97.10
2019-05-22T22:51:26.088Z,97.10
2019-05-22T22:54:31.703Z,97.10
2019-05-22T22:57:36.071Z,97.10
2019-05-22T23:00:42.469Z,97.10
2019-05-22T23:03:48.995Z,97.10
2019-05-22T23:06:55.824Z,97.10
2019-05-22T23:10:01.896Z,97.00
2019-05-22T23:13:07.342Z,97.00
2019-05-22T23:16:11.724Z,97.10
2019-05-22T23:19:47.629Z,97.10
2019-05-22T23:22:50.393Z,97.10
2019-05-22T23:25:55.749Z,97.00
2019-05-22T23:29:00.124Z,97.10
2019-05-22T23:32:06.659Z,96.80
2019-05-22T23:35:11.745Z,97.10
2019-05-22T23:38:16.467Z,97.10
2019-05-22T23:41:23.509Z,97.20
2019-05-22T23:44:28.417Z,97.10
2019-05-22T23:47:33.679Z,97.10
2019-05-22T23:50:39.116Z,97.10
2019-05-22T23:53:45.418Z,97.10
2019-05-22T23:56:52.195Z,97.10
